Time;durP1;ratioP1;P1;durP2;ratioP2;P2;SDS_P1;SDS_P2;PMS_P1;PMS_P2;Temp;Humidity;BMP_temperature;BMP_pressure;BME280_temperature;BME280_humidity;BME280_pressure;Samples;Min_cycle;Max_cycle;Signal;HPM_P1;HPM_P2
2022/03/20 00:01:18;;;;;;;24.43;16.53;;;6.90;99.90;;;;;;5086389;28;20436;-80
2022/03/20 00:04:03;;;;;;;21.40;15.70;;;6.90;99.90;;;;;;5091637;28;21034;-79
2022/03/20 00:06:48;;;;;;;26.30;16.70;;;6.80;99.90;;;;;;5091687;28;20388;-78
2022/03/20 00:09:33;;;;;;;25.93;16.87;;;6.80;99.90;;;;;;5092298;28;20428;-78
2022/03/20 00:12:19;;;;;;;23.77;16.83;;;6.80;99.90;;;;;;5092278;28;20896;-78
2022/03/20 00:15:04;;;;;;;23.53;16.80;;;6.90;99.90;;;;;;5092614;28;20420;-78
2022/03/20 00:17:49;;;;;;;29.43;18.57;;;6.80;99.90;;;;;;5093506;28;20377;-78
2022/03/20 00:20:35;;;;;;;36.63;17.63;;;6.80;99.90;;;;;;5087149;28;20452;-81
2022/03/20 00:23:23;;;;;;;26.63;16.80;;;6.90;99.90;;;;;;5086452;28;20438;-81
2022/03/20 00:26:08;;;;;;;26.77;19.60;;;6.90;99.90;;;;;;5086579;28;20409;-82
2022/03/20 00:28:53;;;;;;;22.23;15.50;;;6.80;99.90;;;;;;5086910;28;20380;-80
2022/03/20 00:31:37;;;;;;;32.03;18.20;;;6.80;99.90;;;;;;5086183;28;20979;-80
2022/03/20 00:34:21;;;;;;;25.23;17.80;;;6.80;99.90;;;;;;5086683;28;20450;-80
2022/03/20 00:37:07;;;;;;;34.23;20.60;;;6.80;99.90;;;;;;5087007;28;20401;-80
2022/03/20 00:39:51;;;;;;;30.47;17.20;;;6.80;99.90;;;;;;5086309;28;20535;-80
2022/03/20 00:42:36;;;;;;;33.83;18.67;;;6.70;99.90;;;;;;5071535;28;20418;-81
2022/03/20 00:45:21;;;;;;;33.60;18.97;;;6.80;99.90;;;;;;5086488;28;20756;-80
2022/03/20 00:48:08;;;;;;;29.90;16.30;;;6.70;99.90;;;;;;5086909;28;20766;-80
2022/03/20 00:50:52;;;;;;;24.63;18.57;;;6.70;99.90;;;;;;5086572;28;20455;-82
2022/03/20 00:53:38;;;;;;;30.67;19.37;;;6.70;99.90;;;;;;5086290;28;20792;-82
2022/03/20 00:56:22;;;;;;;30.93;17.57;;;6.70;99.90;;;;;;5087047;28;20436;-82
2022/03/20 00:59:07;;;;;;;37.90;20.53;;;6.70;99.90;;;;;;5072201;28;20432;-82
2022/03/20 01:01:51;;;;;;;28.70;18.27;;;6.60;99.90;;;;;;5089166;28;20405;-82
2022/03/20 01:04:36;;;;;;;21.87;16.73;;;6.60;99.90;;;;;;5085769;28;20464;-81
2022/03/20 01:07:21;;;;;;;23.60;16.70;;;6.70;99.90;;;;;;5085499;28;20435;-82
2022/03/20 01:10:08;;;;;;;28.47;18.93;;;6.60;99.90;;;;;;5071201;28;20541;-82
2022/03/20 01:12:52;;;;;;;24.50;19.40;;;6.60;99.90;;;;;;5086213;28;20377;-81
2022/03/20 01:15:37;;;;;;;26.20;19.77;;;6.70;99.90;;;;;;5086357;28;20381;-82
2022/03/20 01:18:23;;;;;;;29.27;18.17;;;6.70;99.90;;;;;;5085842;28;20377;-82
2022/03/20 01:21:08;;;;;;;31.40;19.37;;;6.70;99.90;;;;;;5070504;28;20408;-82
2022/03/20 01:23:52;;;;;;;24.70;13.17;;;6.70;99.90;;;;;;5086668;28;20381;-82
2022/03/20 01:26:37;;;;;;;32.60;19.13;;;6.60;99.90;;;;;;5070903;28;20404;-82
2022/03/20 01:29:21;;;;;;;31.20;19.80;;;6.60;99.90;;;;;;5086673;28;20388;-82
2022/03/20 01:32:08;;;;;;;34.40;21.13;;;6.70;99.90;;;;;;5086298;28;20423;-82
2022/03/20 01:34:53;;;;;;;33.60;20.97;;;6.50;99.90;;;;;;5086155;28;20722;-81
2022/03/20 01:37:37;;;;;;;33.67;20.40;;;6.50;99.90;;;;;;5084141;28;20431;-81
2022/03/20 01:40:22;;;;;;;34.67;22.30;;;6.60;99.90;;;;;;5084979;28;20457;-82
2022/03/20 01:43:07;;;;;;;32.63;19.37;;;6.60;99.90;;;;;;5084839;28;20392;-82
2022/03/20 01:45:51;;;;;;;33.03;20.87;;;6.60;99.90;;;;;;5087333;28;20437;-79
2022/03/20 01:48:36;;;;;;;35.47;19.20;;;6.50;99.90;;;;;;5087259;28;20826;-80
2022/03/20 01:52:10;;;;;;;26.77;17.43;;;6.40;99.90;;;;;;5087354;28;20456;-80
2022/03/20 01:54:26;;;;;;;31.83;20.17;;;6.50;99.90;;;;;;5086894;28;20850;-81
2022/03/20 01:57:16;;;;;;;32.93;21.20;;;6.50;99.90;;;;;;5087010;28;20360;-80
2022/03/20 02:00:01;;;;;;;36.43;22.27;;;6.40;99.90;;;;;;5087812;28;20802;-79
2022/03/20 02:02:46;;;;;;;30.60;21.53;;;6.50;99.90;;;;;;5087583;28;20421;-81
2022/03/20 02:05:31;;;;;;;30.10;18.17;;;6.30;99.90;;;;;;5087120;28;20479;-81
2022/03/20 02:08:16;;;;;;;30.60;19.43;;;6.30;99.90;;;;;;5087426;28;20385;-79
2022/03/20 02:11:00;;;;;;;34.22;24.33;;;6.40;99.90;;;;;;5087322;28;20520;-79
2022/03/20 02:13:45;;;;;;;38.23;21.57;;;6.40;99.90;;;;;;5084603;28;20515;-81
2022/03/20 02:16:29;;;;;;;30.63;21.10;;;6.40;99.90;;;;;;5084221;28;20437;-80
2022/03/20 02:19:14;;;;;;;31.87;21.83;;;6.40;99.90;;;;;;5083742;28;20416;-80
2022/03/20 02:21:59;;;;;;;38.37;20.67;;;6.40;99.90;;;;;;5084136;28;20432;-80
2022/03/20 02:24:48;;;;;;;28.67;20.10;;;6.30;99.90;;;;;;5083619;28;20384;-80
2022/03/20 02:27:34;;;;;;;26.90;17.73;;;6.30;99.90;;;;;;5083913;28;20401;-81
2022/03/20 02:30:18;;;;;;;28.73;17.90;;;6.30;99.90;;;;;;5083122;28;20440;-81
2022/03/20 02:33:03;;;;;;;32.83;20.07;;;6.30;99.90;;;;;;5084155;28;20404;-81
2022/03/20 02:35:48;;;;;;;40.40;19.17;;;6.30;99.90;;;;;;5083662;28;20380;-81
2022/03/20 02:38:34;;;;;;;35.07;20.63;;;6.20;99.90;;;;;;5068485;28;20428;-81
2022/03/20 02:41:18;;;;;;;32.30;21.10;;;6.20;99.90;;;;;;5083840;28;20706;-81
2022/03/20 02:44:03;;;;;;;35.03;19.77;;;6.20;99.90;;;;;;5083941;28;20464;-81
2022/03/20 02:46:48;;;;;;;38.40;21.10;;;6.10;99.90;;;;;;5069161;28;20384;-81
2022/03/20 02:49:32;;;;;;;31.40;19.17;;;6.10;99.90;;;;;;5083848;28;20911;-82
2022/03/20 02:52:18;;;;;;;26.03;20.47;;;6.20;99.90;;;;;;5084209;28;20409;-81
2022/03/20 02:55:03;;;;;;;32.70;20.73;;;6.10;99.90;;;;;;5085008;28;20869;-78
2022/03/20 02:57:49;;;;;;;38.70;21.90;;;6.10;99.90;;;;;;5090242;28;20392;-78
2022/03/20 03:00:34;;;;;;;33.87;20.37;;;6.30;99.90;;;;;;5057698;28;20437;-80
2022/03/20 03:03:18;;;;;;;39.17;22.40;;;6.10;99.90;;;;;;5083530;28;20384;-80
2022/03/20 03:06:06;;;;;;;38.23;20.37;;;6.10;99.90;;;;;;5086933;28;20543;-82
2022/03/20 03:11:51;;;;;;;32.43;19.53;;;6.00;99.90;;;;;;5084447;28;20463;-81
2022/03/20 03:17:32;;;;;;;32.13;17.80;;;6.10;99.90;;;;;;5096099;28;20389;-81
2022/03/20 03:20:19;;;;;;;31.53;18.87;;;6.20;99.90;;;;;;5096969;28;20410;-81
2022/03/20 03:23:04;;;;;;;29.70;20.17;;;6.10;99.90;;;;;;5087429;28;20385;-81
2022/03/20 03:25:48;;;;;;;28.73;19.70;;;6.10;99.90;;;;;;5083618;28;20396;-81
2022/03/20 03:28:34;;;;;;;39.60;19.60;;;6.00;99.90;;;;;;5083084;28;20430;-81
2022/03/20 03:31:18;;;;;;;33.20;19.00;;;5.90;99.90;;;;;;5083110;28;20528;-81
2022/03/20 03:37:03;;;;;;;34.37;20.80;;;6.00;99.90;;;;;;5081427;28;20684;-81
2022/03/20 03:39:48;;;;;;;29.37;19.63;;;5.90;99.90;;;;;;5082093;28;20417;-80
2022/03/20 03:42:33;;;;;;;27.33;18.10;;;5.90;99.90;;;;;;5082506;28;20386;-80
2022/03/20 03:45:17;;;;;;;32.67;21.30;;;6.00;99.90;;;;;;5081930;28;20476;-79
2022/03/20 03:48:02;;;;;;;24.97;17.20;;;5.90;99.90;;;;;;5082510;28;20673;-79
2022/03/20 03:50:50;;;;;;;29.17;17.97;;;5.90;99.90;;;;;;5081655;28;20448;-81
2022/03/20 03:53:34;;;;;;;31.37;18.90;;;5.80;99.90;;;;;;5081344;28;20834;-80
2022/03/20 03:56:19;;;;;;;32.83;19.43;;;5.80;99.90;;;;;;5081331;28;20424;-81
2022/03/20 03:59:03;;;;;;;25.83;18.17;;;5.80;99.90;;;;;;5086083;28;20783;-81
2022/03/20 04:01:49;;;;;;;23.23;16.50;;;5.80;99.90;;;;;;5086226;28;20435;-80
2022/03/20 04:04:33;;;;;;;25.83;19.20;;;5.80;99.90;;;;;;5085824;28;20475;-80
2022/03/20 04:07:18;;;;;;;31.83;19.43;;;5.80;99.90;;;;;;5085620;28;20484;-80
2022/03/20 04:10:05;;;;;;;32.23;18.70;;;5.70;99.90;;;;;;5085700;28;20444;-80
2022/03/20 04:12:50;;;;;;;37.20;18.57;;;5.60;99.90;;;;;;5085650;28;20396;-80
2022/03/20 04:15:34;;;;;;;26.70;17.77;;;5.60;99.90;;;;;;5085931;28;20381;-81
2022/03/20 04:18:19;;;;;;;53.90;19.73;;;5.60;99.90;;;;;;5085517;28;20794;-79
2022/03/20 04:21:04;;;;;;;30.00;20.87;;;5.50;99.90;;;;;;5075333;28;20443;-80
2022/03/20 04:23:49;;;;;;;36.60;20.47;;;5.60;99.90;;;;;;5085036;28;20400;-81
2022/03/20 04:26:34;;;;;;;29.60;19.17;;;5.50;99.90;;;;;;5085690;28;20388;-80
2022/03/20 04:29:20;;;;;;;32.50;19.63;;;5.50;99.90;;;;;;5085158;28;20397;-80
2022/03/20 04:32:07;;;;;;;26.80;17.87;;;5.40;99.90;;;;;;5084965;28;20467;-81
2022/03/20 04:34:53;;;;;;;32.03;19.47;;;5.40;99.90;;;;;;5085699;28;20388;-81
2022/03/20 04:37:37;;;;;;;31.43;17.10;;;5.40;99.90;;;;;;5086974;28;20404;-81
2022/03/20 04:40:22;;;;;;;26.57;17.93;;;5.40;99.90;;;;;;5087790;28;20518;-81
2022/03/20 04:43:06;;;;;;;30.13;17.40;;;5.30;99.90;;;;;;5087329;28;20381;-81
2022/03/20 04:45:51;;;;;;;31.50;17.93;;;5.40;99.90;;;;;;5092222;28;20431;-81
2022/03/20 05:00:41;;;;;;;25.07;17.67;;;5.20;99.90;;;;;;5115547;28;21001;-79
2022/03/20 05:03:25;;;;;;;27.07;18.30;;;5.40;99.90;;;;;;5115245;28;20706;-79
2022/03/20 05:06:10;;;;;;;31.33;18.97;;;5.30;99.90;;;;;;5115023;28;20383;-79
2022/03/20 05:13:19;;;;;;;29.43;16.90;;;5.30;99.90;;;;;;5109541;28;20437;-81
2022/03/20 05:15:01;;;;;;;34.10;19.67;;;5.20;99.90;;;;;;5105627;28;20387;-81
2022/03/20 05:17:45;;;;;;;30.13;18.63;;;5.10;99.90;;;;;;5105701;28;20388;-81
2022/03/20 05:20:29;;;;;;;32.30;18.77;;;5.30;99.90;;;;;;5105281;28;20412;-81
2022/03/20 05:23:14;;;;;;;36.40;18.33;;;5.30;99.90;;;;;;5105220;28;20415;-81
2022/03/20 05:25:59;;;;;;;30.90;18.33;;;5.20;99.90;;;;;;5104183;28;20399;-80
2022/03/20 05:28:43;;;;;;;29.50;16.53;;;5.30;99.90;;;;;;5105064;28;20388;-80
2022/03/20 05:31:28;;;;;;;34.80;18.77;;;5.20;99.90;;;;;;5104886;28;20438;-81
2022/03/20 05:34:13;;;;;;;33.60;19.00;;;5.20;99.90;;;;;;5104794;28;20362;-81
2022/03/20 05:36:57;;;;;;;28.47;16.83;;;5.20;99.90;;;;;;5105076;28;20384;-80
2022/03/20 05:39:42;;;;;;;22.90;17.00;;;5.20;99.90;;;;;;5105238;28;20408;-81
2022/03/20 05:42:27;;;;;;;31.37;19.00;;;5.20;99.90;;;;;;5105369;28;20385;-81
2022/03/20 05:45:12;;;;;;;33.03;17.70;;;5.20;99.90;;;;;;5105549;28;20377;-81
2022/03/20 05:47:56;;;;;;;37.33;16.63;;;5.40;99.90;;;;;;5105189;28;20751;-80
2022/03/20 05:50:41;;;;;;;27.07;15.73;;;5.30;99.90;;;;;;5104476;28;20450;-81
2022/03/20 05:53:26;;;;;;;26.80;18.10;;;5.40;99.90;;;;;;5089382;28;20400;-81
2022/03/20 05:59:14;;;;;;;32.03;17.43;;;5.80;99.90;;;;;;5109311;28;20400;-79
2022/03/20 06:01:59;;;;;;;30.63;16.30;;;5.60;99.90;;;;;;5108899;28;20366;-81
2022/03/20 06:04:43;;;;;;;30.63;17.70;;;5.50;99.90;;;;;;5104727;28;20447;-81
2022/03/20 06:07:28;;;;;;;32.00;19.50;;;5.60;99.90;;;;;;5103540;28;20385;-80
2022/03/20 06:10:17;;;;;;;29.77;19.30;;;5.50;99.90;;;;;;5104679;28;20455;-80
2022/03/20 06:13:05;;;;;;;28.63;17.60;;;5.50;99.90;;;;;;5104763;28;20375;-81
2022/03/20 06:15:49;;;;;;;21.23;16.17;;;5.60;99.90;;;;;;5104985;28;20404;-81
2022/03/20 06:18:34;;;;;;;25.60;17.47;;;5.70;99.90;;;;;;5104248;28;20460;-81
2022/03/20 06:21:18;;;;;;;22.43;15.97;;;5.80;99.90;;;;;;5103729;28;20408;-81
2022/03/20 06:24:05;;;;;;;32.47;16.63;;;5.80;99.90;;;;;;5104947;28;20391;-81
2022/03/20 06:26:50;;;;;;;23.17;17.97;;;5.80;99.90;;;;;;5105164;28;20440;-81
2022/03/20 06:29:34;;;;;;;24.57;15.70;;;5.80;99.90;;;;;;5104525;28;20388;-80
2022/03/20 06:32:18;;;;;;;27.00;15.90;;;5.90;99.90;;;;;;5104858;28;20408;-81
2022/03/20 06:35:06;;;;;;;28.47;17.20;;;5.90;99.90;;;;;;5104438;28;20736;-81
2022/03/20 06:37:52;;;;;;;31.67;20.17;;;5.90;99.90;;;;;;5088706;28;20387;-81
2022/03/20 06:40:37;;;;;;;30.57;18.90;;;6.10;99.90;;;;;;5104946;28;20412;-81
2022/03/20 06:43:21;;;;;;;32.97;18.57;;;6.20;99.90;;;;;;5103436;28;20387;-81
2022/03/20 06:46:07;;;;;;;26.73;16.67;;;6.20;99.90;;;;;;5104454;28;20384;-81
2022/03/20 06:48:51;;;;;;;24.10;17.33;;;6.30;99.90;;;;;;5103760;28;20878;-81
2022/03/20 06:51:36;;;;;;;21.00;15.97;;;6.40;99.90;;;;;;5088052;28;20451;-81
2022/03/20 06:54:20;;;;;;;27.40;16.27;;;6.50;99.90;;;;;;5103725;28;20438;-81
2022/03/20 06:57:05;;;;;;;32.67;17.13;;;6.50;99.90;;;;;;5103739;28;20391;-81
2022/03/20 06:59:49;;;;;;;25.20;16.50;;;6.70;99.90;;;;;;5088556;28;20388;-81
2022/03/20 07:02:34;;;;;;;28.50;15.90;;;6.50;99.90;;;;;;5088845;28;20411;-81
2022/03/20 07:05:20;;;;;;;30.57;16.37;;;6.50;99.90;;;;;;5086981;28;20452;-82
2022/03/20 07:08:06;;;;;;;28.60;18.07;;;6.50;99.90;;;;;;5086361;28;20400;-81
2022/03/20 07:10:51;;;;;;;27.50;18.10;;;6.50;99.90;;;;;;5084305;28;20501;-81
2022/03/20 07:13:53;;;;;;;22.87;16.00;;;6.60;99.90;;;;;;5084029;28;20390;-81
2022/03/20 07:16:38;;;;;;;30.70;18.40;;;6.50;99.90;;;;;;5086824;28;20425;-79
2022/03/20 07:19:23;;;;;;;33.07;18.90;;;6.50;99.90;;;;;;5077029;28;20432;-78
2022/03/20 07:22:08;;;;;;;29.73;18.30;;;6.60;99.90;;;;;;5091158;28;20393;-80
2022/03/20 07:24:53;;;;;;;46.73;17.00;;;6.60;99.90;;;;;;5091014;28;20451;-79
2022/03/20 07:30:37;;;;;;;26.43;18.13;;;6.80;99.90;;;;;;5088736;28;20445;-79
2022/03/20 07:33:21;;;;;;;22.37;16.53;;;6.80;99.90;;;;;;5089073;28;20400;-78
2022/03/20 07:36:06;;;;;;;20.10;14.33;;;6.70;99.90;;;;;;5089520;28;20384;-83
2022/03/20 07:38:51;;;;;;;25.80;17.00;;;6.80;99.90;;;;;;5083908;28;20393;-81
2022/03/20 07:41:35;;;;;;;21.73;14.67;;;6.90;99.90;;;;;;5067883;28;20507;-81
2022/03/20 07:44:22;;;;;;;30.60;16.77;;;7.00;99.90;;;;;;5067223;28;20417;-82
2022/03/20 07:47:08;;;;;;;24.33;16.23;;;7.10;99.90;;;;;;5082976;28;20404;-82
2022/03/20 07:49:53;;;;;;;22.23;13.77;;;7.20;99.90;;;;;;5082910;28;20414;-82
2022/03/20 07:52:38;;;;;;;18.17;14.53;;;7.30;99.90;;;;;;5083925;28;20381;-83
2022/03/20 07:55:23;;;;;;;18.07;13.37;;;7.40;99.90;;;;;;5083340;28;20424;-81
2022/03/20 07:58:07;;;;;;;26.73;17.03;;;7.50;99.90;;;;;;5084504;28;20403;-82
2022/03/20 08:00:51;;;;;;;23.57;16.13;;;7.50;99.90;;;;;;5083976;28;20882;-81
2022/03/20 08:03:37;;;;;;;21.23;13.83;;;7.40;99.90;;;;;;5087226;28;20501;-82
2022/03/20 08:06:21;;;;;;;32.60;17.63;;;7.70;99.90;;;;;;5102875;28;20535;-82
2022/03/20 08:09:06;;;;;;;19.83;13.13;;;7.80;99.90;;;;;;5103317;28;20412;-83
2022/03/20 08:11:51;;;;;;;25.80;15.47;;;7.80;99.90;;;;;;5103302;28;20741;-82
2022/03/20 08:14:36;;;;;;;13.47;8.10;;;7.90;99.90;;;;;;5104230;28;20788;-83
2022/03/20 08:17:21;;;;;;;23.10;12.83;;;7.70;99.90;;;;;;5103349;28;20400;-80
2022/03/20 08:20:06;;;;;;;21.70;14.17;;;7.90;99.90;;;;;;5102999;28;20385;-81
2022/03/20 08:22:52;;;;;;;21.13;15.03;;;7.80;99.90;;;;;;5103122;28;20457;-83
2022/03/20 08:25:38;;;;;;;20.20;12.73;;;8.10;99.90;;;;;;5103863;28;20381;-83
2022/03/20 08:28:22;;;;;;;23.20;13.63;;;8.00;99.90;;;;;;5074680;28;20777;-82
2022/03/20 08:31:07;;;;;;;20.83;15.37;;;8.20;99.90;;;;;;5102969;28;20436;-84
2022/03/20 08:33:52;;;;;;;19.70;13.87;;;8.40;99.90;;;;;;5088176;28;20388;-82
2022/03/20 08:36:37;;;;;;;18.47;13.77;;;8.30;99.90;;;;;;5087982;28;20379;-82
2022/03/20 08:39:21;;;;;;;25.30;15.00;;;8.30;99.90;;;;;;5103367;28;20435;-82
2022/03/20 08:42:06;;;;;;;28.60;16.97;;;8.40;99.90;;;;;;5103750;28;20391;-83
2022/03/20 08:44:52;;;;;;;23.97;16.13;;;8.50;99.90;;;;;;5092069;28;20388;-82
2022/03/20 08:47:38;;;;;;;26.77;14.33;;;8.80;99.90;;;;;;5050487;28;20459;-83
2022/03/20 08:50:23;;;;;;;24.10;16.30;;;9.00;99.90;;;;;;5108246;28;20467;-82
2022/03/20 08:53:07;;;;;;;25.83;14.77;;;9.10;99.90;;;;;;5109425;28;20407;-83
2022/03/20 08:55:52;;;;;;;22.77;14.97;;;9.10;99.90;;;;;;5107359;28;20424;-83
2022/03/20 08:58:37;;;;;;;24.20;14.00;;;9.60;99.90;;;;;;5065253;28;20470;-81
2022/03/20 09:01:22;;;;;;;27.13;15.00;;;9.40;99.90;;;;;;5054994;28;20441;-81
2022/03/20 09:04:07;;;;;;;21.80;15.87;;;10.00;99.90;;;;;;5051849;28;20477;-81
2022/03/20 09:06:51;;;;;;;17.77;12.73;;;9.70;99.90;;;;;;5066032;28;20394;-82
2022/03/20 09:09:35;;;;;;;21.13;15.97;;;9.90;99.90;;;;;;5052354;28;20814;-81
2022/03/20 09:12:20;;;;;;;25.13;15.20;;;9.80;99.90;;;;;;5053055;28;20453;-82
2022/03/20 09:15:06;;;;;;;24.20;15.70;;;10.10;99.90;;;;;;5072120;28;20390;-82
2022/03/20 09:20:53;;;;;;;22.30;15.60;;;10.40;99.30;;;;;;5074705;28;20442;-82
2022/03/20 09:23:37;;;;;;;22.97;13.37;;;10.60;98.80;;;;;;5076614;28;20422;-82
2022/03/20 09:26:21;;;;;;;25.67;13.43;;;10.10;98.60;;;;;;5075817;28;20446;-81
2022/03/20 09:29:06;;;;;;;22.97;13.47;;;10.60;98.10;;;;;;5093060;28;20401;-81
2022/03/20 09:31:53;;;;;;;21.60;16.10;;;10.30;98.00;;;;;;5103183;28;20451;-81
2022/03/20 09:34:38;;;;;;;24.00;13.77;;;10.20;97.50;;;;;;5108739;28;20388;-84
2022/03/20 09:37:22;;;;;;;18.10;13.33;;;10.70;97.50;;;;;;5106745;28;20460;-81
2022/03/20 09:40:09;;;;;;;18.00;15.60;;;10.70;96.10;;;;;;5106427;28;20392;-82
2022/03/20 09:42:54;;;;;;;23.83;14.53;;;10.90;95.70;;;;;;5091693;28;20454;-83
2022/03/20 09:45:39;;;;;;;23.23;14.80;;;11.60;94.00;;;;;;5106287;28;20399;-83
2022/03/20 09:48:27;;;;;;;23.03;14.27;;;11.50;93.50;;;;;;5107010;28;20965;-84
2022/03/20 09:51:12;;;;;;;21.40;14.37;;;11.60;93.20;;;;;;5106378;28;20467;-82
2022/03/20 09:53:59;;;;;;;23.80;15.73;;;11.90;92.20;;;;;;5105820;28;20392;-82
2022/03/20 09:56:44;;;;;;;21.83;13.40;;;12.10;91.90;;;;;;5106477;28;20389;-83
2022/03/20 09:59:29;;;;;;;20.83;15.07;;;11.70;91.30;;;;;;5107204;28;20384;-81
2022/03/20 10:02:13;;;;;;;18.93;12.80;;;12.00;91.00;;;;;;5091531;28;20396;-84
2022/03/20 10:05:00;;;;;;;17.43;14.17;;;12.20;90.20;;;;;;5070974;28;20455;-80
2022/03/20 10:07:44;;;;;;;18.00;14.80;;;12.50;90.50;;;;;;5091301;28;20401;-82
2022/03/20 10:10:29;;;;;;;18.57;12.37;;;12.80;88.10;;;;;;5096185;28;20453;-80
2022/03/20 10:13:14;;;;;;;24.47;15.13;;;12.20;85.60;;;;;;5097203;28;20420;-82
2022/03/20 10:16:00;;;;;;;19.70;13.37;;;12.20;88.90;;;;;;5096365;28;20389;-82
2022/03/20 10:18:44;;;;;;;19.07;15.77;;;12.20;87.70;;;;;;5097375;28;20385;-81
2022/03/20 10:21:45;;;;;;;24.30;17.10;;;12.60;83.30;;;;;;5097641;28;20420;-82
2022/03/20 10:24:31;;;;;;;21.03;15.23;;;12.60;83.50;;;;;;5096931;28;20381;-82
2022/03/20 10:27:16;;;;;;;23.13;16.57;;;12.90;86.30;;;;;;5096996;28;20384;-82
2022/03/20 10:30:01;;;;;;;23.57;17.00;;;13.30;83.60;;;;;;5096562;28;20380;-82
2022/03/20 10:32:48;;;;;;;20.30;13.17;;;12.80;82.20;;;;;;5094733;28;20401;-80
2022/03/20 10:35:33;;;;;;;19.20;12.90;;;12.90;82.10;;;;;;5086184;28;20462;-83
2022/03/20 10:38:36;;;;;;;22.90;15.77;;;13.30;81.30;;;;;;5085311;28;20435;-82
2022/03/20 10:41:27;;;;;;;24.90;13.70;;;13.30;80.50;;;;;;5085581;28;20384;-84
2022/03/20 10:44:15;;;;;;;22.13;15.43;;;12.80;79.70;;;;;;5070502;28;20384;-82
2022/03/20 10:47:04;;;;;;;13.00;11.70;;;13.50;80.60;;;;;;5084775;28;20388;-82
2022/03/20 10:50:04;;;;;;;20.00;11.80;;;13.30;76.70;;;;;;5084712;28;20736;-82
2022/03/20 10:53:06;;;;;;;20.37;14.40;;;13.70;76.70;;;;;;5086233;28;20390;-82
2022/03/20 10:55:56;;;;;;;17.70;12.87;;;13.30;77.20;;;;;;5086809;28;20448;-83
2022/03/20 10:58:40;;;;;;;17.80;14.17;;;13.90;76.40;;;;;;5044285;28;20399;-81
2022/03/20 11:01:44;;;;;;;18.10;14.07;;;13.80;75.60;;;;;;5031677;28;20383;-83
2022/03/20 11:04:31;;;;;;;19.57;13.87;;;14.00;76.70;;;;;;5015692;28;20462;-82
2022/03/20 11:07:21;;;;;;;24.40;13.90;;;14.50;72.40;;;;;;5030414;28;20411;-83
2022/03/20 11:10:11;;;;;;;15.83;12.10;;;14.30;72.40;;;;;;5042469;28;20479;-82
2022/03/20 11:12:57;;;;;;;23.50;17.70;;;13.90;71.60;;;;;;5044417;28;20395;-81
2022/03/20 11:15:45;;;;;;;17.33;12.00;;;13.90;73.40;;;;;;5044591;28;20387;-83
2022/03/20 11:18:33;;;;;;;18.87;14.90;;;14.50;70.10;;;;;;5045272;28;20549;-82
2022/03/20 11:21:22;;;;;;;19.77;15.70;;;16.00;70.30;;;;;;5051193;28;20375;-80
2022/03/20 11:24:07;;;;;;;22.87;16.60;;;15.80;67.20;;;;;;5038698;28;20833;-78
2022/03/20 11:26:55;;;;;;;21.07;17.00;;;15.80;67.00;;;;;;5052741;28;20452;-80
2022/03/20 11:29:47;;;;;;;22.90;13.70;;;15.60;66.60;;;;;;5077636;28;20504;-81
2022/03/20 11:32:33;;;;;;;18.07;14.10;;;14.80;66.70;;;;;;5094630;28;20396;-80
2022/03/20 11:35:25;;;;;;;23.50;14.87;;;14.80;68.00;;;;;;5092807;28;20405;-82
2022/03/20 11:38:25;;;;;;;16.63;13.43;;;15.80;66.10;;;;;;5069870;28;20951;-81
2022/03/20 11:41:14;;;;;;;19.53;15.10;;;15.90;65.40;;;;;;5086842;28;20718;-82
2022/03/20 11:44:15;;;;;;;20.60;14.73;;;16.70;64.40;;;;;;5086060;28;20377;-81
2022/03/20 11:47:19;;;;;;;22.13;14.67;;;16.20;63.60;;;;;;5086315;28;20384;-81
2022/03/20 11:50:25;;;;;;;20.13;14.90;;;17.30;63.00;;;;;;5086303;28;20381;-83
2022/03/20 11:53:10;;;;;;;19.60;14.70;;;16.70;60.50;;;;;;5086055;28;20461;-82
2022/03/20 11:55:55;;;;;;;20.80;15.87;;;16.30;59.80;;;;;;5052636;28;20476;-82
2022/03/20 11:58:41;;;;;;;15.30;13.80;;;16.40;60.80;;;;;;5069272;28;20504;-80
2022/03/20 12:01:48;;;;;;;20.10;15.17;;;16.40;61.20;;;;;;5088983;28;20385;-79
2022/03/20 12:04:51;;;;;;;18.83;14.40;;;17.00;60.90;;;;;;5080987;28;20484;-79
2022/03/20 12:07:49;;;;;;;17.70;15.80;;;16.60;60.30;;;;;;5090860;28;20393;-79
2022/03/20 12:11:01;;;;;;;19.73;15.43;;;17.30;59.40;;;;;;5090689;28;20452;-79
2022/03/20 12:14:11;;;;;;;18.47;15.00;;;17.70;58.70;;;;;;5092024;28;20405;-80
2022/03/20 12:16:58;;;;;;;21.53;14.70;;;17.10;58.20;;;;;;5091069;28;20381;-79
2022/03/20 12:19:49;;;;;;;15.00;12.30;;;17.00;60.00;;;;;;5093637;28;20396;-80
2022/03/20 12:22:34;;;;;;;17.47;13.90;;;16.10;58.40;;;;;;5079623;28;20420;-80
2022/03/20 12:25:42;;;;;;;22.30;15.67;;;16.50;58.50;;;;;;5094323;28;20400;-80
2022/03/20 12:28:31;;;;;;;20.20;15.73;;;16.40;59.00;;;;;;5093707;28;20401;-80
2022/03/20 12:31:26;;;;;;;17.80;13.37;;;16.30;58.60;;;;;;5078784;28;20502;-80
2022/03/20 12:34:20;;;;;;;16.73;13.90;;;16.40;58.60;;;;;;5095292;28;20408;-80
2022/03/20 12:37:35;;;;;;;18.60;15.63;;;16.60;60.00;;;;;;5093934;28;20416;-80
2022/03/20 12:40:32;;;;;;;19.33;15.17;;;17.50;58.90;;;;;;5076381;28;20389;-81
2022/03/20 12:43:20;;;;;;;17.37;14.43;;;17.00;59.40;;;;;;5094988;28;20405;-79
2022/03/20 12:46:08;;;;;;;17.92;15.13;;;16.40;60.30;;;;;;5078625;28;20405;-80
2022/03/20 12:48:54;;;;;;;16.17;14.43;;;16.70;59.30;;;;;;5077546;28;20174;-81
2022/03/20 12:51:40;;;;;;;19.07;12.87;;;17.10;59.40;;;;;;5076727;28;20529;-79
2022/03/20 12:54:26;;;;;;;14.67;13.10;;;17.20;58.90;;;;;;5079257;28;20381;-80
2022/03/20 12:57:10;;;;;;;17.10;13.33;;;17.50;59.10;;;;;;5081692;28;20404;-79
2022/03/20 13:00:07;;;;;;;19.20;14.37;;;17.10;58.00;;;;;;5083698;28;20401;-79
2022/03/20 13:03:16;;;;;;;18.27;14.60;;;17.10;59.30;;;;;;5098175;28;20465;-81
2022/03/20 13:06:02;;;;;;;13.83;12.17;;;16.70;58.10;;;;;;5063355;28;20462;-80
2022/03/20 13:08:47;;;;;;;15.67;13.57;;;17.00;58.90;;;;;;5057928;28;20374;-78
2022/03/20 13:14:29;;;;;;;18.20;14.40;;;17.20;57.20;;;;;;5071813;28;20768;-79
2022/03/20 13:17:25;;;;;;;19.43;15.10;;;17.90;57.20;;;;;;5043709;28;20401;-80
2022/03/20 13:20:18;;;;;;;16.10;13.93;;;17.50;58.30;;;;;;5057555;28;20778;-80
2022/03/20 13:23:09;;;;;;;16.80;14.20;;;17.20;57.40;;;;;;5057791;28;20433;-80
2022/03/20 13:25:58;;;;;;;18.57;15.50;;;16.80;57.40;;;;;;5043260;28;20414;-80
2022/03/20 13:28:45;;;;;;;16.50;14.50;;;17.10;58.10;;;;;;5070413;28;20437;-80
2022/03/20 13:31:30;;;;;;;17.07;14.17;;;17.30;57.30;;;;;;5056164;28;20514;-78
2022/03/20 13:34:18;;;;;;;16.50;11.90;;;17.10;57.10;;;;;;5055631;28;20393;-79
2022/03/20 13:37:07;;;;;;;24.00;14.87;;;17.10;57.50;;;;;;5070621;28;20402;-80
2022/03/20 13:39:55;;;;;;;18.03;14.07;;;17.60;57.40;;;;;;5072326;28;20459;-80
2022/03/20 13:42:41;;;;;;;13.73;11.93;;;17.20;57.20;;;;;;5056376;28;20474;-79
2022/03/20 13:45:34;;;;;;;19.90;15.40;;;16.90;57.60;;;;;;5056285;28;20405;-80
2022/03/20 13:48:19;;;;;;;14.67;13.13;;;18.10;57.20;;;;;;5056766;28;20436;-80
2022/03/20 13:51:04;;;;;;;17.43;13.60;;;17.70;57.20;;;;;;5072465;28;20526;-80
2022/03/20 13:54:10;;;;;;;15.60;13.97;;;18.20;56.10;;;;;;5072177;28;20398;-80
2022/03/20 13:57:17;;;;;;;14.60;13.10;;;17.50;55.00;;;;;;5071625;28;20477;-79
2022/03/20 14:00:08;;;;;;;16.67;13.50;;;18.00;55.30;;;;;;5042072;28;20532;-80
2022/03/20 14:02:52;;;;;;;15.90;13.10;;;17.90;54.60;;;;;;5068147;28;20389;-83
2022/03/20 14:05:37;;;;;;;18.63;15.00;;;17.50;55.90;;;;;;5067976;28;20397;-81
2022/03/20 14:08:26;;;;;;;16.00;13.10;;;17.80;55.30;;;;;;5057894;28;20426;-78
2022/03/20 14:11:11;;;;;;;14.40;11.80;;;17.40;54.40;;;;;;5055650;28;20441;-79
2022/03/20 14:13:56;;;;;;;22.30;13.03;;;17.70;55.50;;;;;;5055999;28;20390;-82
2022/03/20 14:17:02;;;;;;;18.30;14.27;;;17.60;54.70;;;;;;5050388;28;20378;-81
2022/03/20 14:19:47;;;;;;;16.67;11.90;;;18.40;56.00;;;;;;5058496;28;20441;-81
2022/03/20 14:22:54;;;;;;;14.40;12.73;;;18.50;54.00;;;;;;5058949;28;20390;-82
2022/03/20 14:25:51;;;;;;;18.53;14.43;;;18.10;54.80;;;;;;5060423;28;20394;-80
2022/03/20 14:28:38;;;;;;;17.00;13.80;;;17.80;55.50;;;;;;5058543;28;20404;-81
2022/03/20 14:40:24;;;;;;;15.80;13.60;;;17.60;55.00;;;;;;5057906;28;20414;-81
2022/03/20 14:43:10;;;;;;;13.73;12.07;;;17.50;55.30;;;;;;5030928;28;20445;-82
2022/03/20 14:45:59;;;;;;;12.43;10.97;;;17.20;55.00;;;;;;5060083;28;20455;-79
2022/03/20 14:48:44;;;;;;;15.50;13.33;;;17.70;55.00;;;;;;5046122;28;20406;-80
2022/03/20 14:51:30;;;;;;;14.30;11.63;;;18.00;55.10;;;;;;5061113;28;20437;-78
2022/03/20 14:54:17;;;;;;;17.93;12.67;;;17.90;54.60;;;;;;5062601;28;20390;-80
2022/03/20 14:57:02;;;;;;;19.07;11.87;;;17.50;55.00;;;;;;5062921;28;20841;-78
2022/03/20 14:59:49;;;;;;;15.23;12.37;;;18.80;54.70;;;;;;5047417;28;20464;-79